Terminal Aerodrome Forecast
Issued by NWS

Home | Current Version | Previous Version | Text Only | Print | Product List | Glossary On
Versions: 1 2 3 4 5 6 7 8 9 10 11 12 13
000
FTAK31 PAJN 250522
TAFAWG
TAF
PAWG 250522Z 2506/2606 VRB05KT P6SM BKN050
     FM251200 VRB03KT P6SM VCFG SCT005
      TEMPO 2513/2517 2SM BR BKN005
     FM251700 VRB04KT P6SM BKN100
      AMD LTD TO CLD VIS AND WIND 2506/2515=

USA.gov is the U.S. government's official web portal to all federal, state and local government web resources and services.